createdAt,value
2023-02-07T00:01:52.828Z,103373.71
2023-02-07T00:04:25.722Z,103383.59
2023-02-07T00:06:56.434Z,103384.23
2023-02-07T00:09:27.120Z,103380.79
2023-02-07T00:11:57.778Z,103375.94
2023-02-07T00:14:28.574Z,103376.70
2023-02-07T00:16:59.280Z,103366.39
2023-02-07T00:19:29.989Z,103361.22
2023-02-07T00:22:00.672Z,103353.33
2023-02-07T00:24:31.270Z,103350.98
2023-02-07T00:27:04.462Z,103349.78
2023-02-07T00:29:35.493Z,103348.03
2023-02-07T00:32:04.840Z,103349.74
2023-02-07T00:34:35.774Z,103345.15
2023-02-07T00:37:07.085Z,103339.89
2023-02-07T00:39:38.055Z,103346.24
2023-02-07T00:42:08.977Z,103343.55
2023-02-07T00:44:38.214Z,103337.70
2023-02-07T00:47:08.944Z,103337.61
2023-02-07T00:49:39.632Z,103340.02
2023-02-07T00:52:10.500Z,103346.02
2023-02-07T00:54:41.178Z,103352.92
2023-02-07T00:57:12.226Z,103354.98
2023-02-07T00:59:41.330Z,103351.18
2023-02-07T01:02:12.013Z,103345.48
2023-02-07T01:04:42.800Z,103351.00
2023-02-07T01:07:13.481Z,103344.11
2023-02-07T01:09:44.283Z,103341.68
2023-02-07T01:12:14.996Z,103350.54
2023-02-07T01:14:45.656Z,103348.92
2023-02-07T01:17:16.349Z,103346.23
2023-02-07T01:19:47.100Z,103343.86
2023-02-07T01:22:17.801Z,103352.15
2023-02-07T01:24:48.516Z,103350.14
2023-02-07T01:27:19.172Z,103353.13
2023-02-07T01:29:50.503Z,103356.91
2023-02-07T01:32:21.234Z,103356.52
2023-02-07T01:34:51.897Z,103355.65
2023-02-07T01:37:22.594Z,103353.75
2023-02-07T01:39:53.312Z,103358.48
2023-02-07T01:42:42.999Z,103363.21
2023-02-07T01:45:28.081Z,103367.92
2023-02-07T01:48:03.980Z,103375.79
2023-02-07T01:50:35.438Z,103383.70
2023-02-07T01:53:07.554Z,103384.27
2023-02-07T01:55:40.172Z,103376.53
2023-02-07T01:58:11.269Z,103368.56
2023-02-07T02:00:42.368Z,103367.23
2023-02-07T02:03:13.131Z,103364.20
2023-02-07T02:05:45.828Z,103363.27
2023-02-07T02:08:16.446Z,103360.62
2023-02-07T02:11:02.085Z,103357.45
2023-02-07T02:13:40.711Z,103344.16
2023-02-07T02:16:20.321Z,103341.48
2023-02-07T02:19:26.250Z,103349.42
2023-02-07T02:22:19.022Z,103348.88
2023-02-07T02:25:37.689Z,103345.47
2023-02-07T02:28:30.509Z,103340.50
2023-02-07T02:31:31.624Z,103343.23
2023-02-07T02:34:07.632Z,103347.20
2023-02-07T02:36:48.259Z,103353.64
2023-02-07T02:39:27.923Z,103343.39
2023-02-07T02:42:04.324Z,103338.47
2023-02-07T02:44:42.630Z,103336.98
2023-02-07T02:47:13.994Z,103339.02
2023-02-07T02:49:45.914Z,103332.10
2023-02-07T02:52:16.657Z,103325.64
2023-02-07T02:54:47.261Z,103321.64
2023-02-07T02:57:48.204Z,103324.82
2023-02-07T03:00:57.677Z,103322.48
2023-02-07T03:03:59.738Z,103321.38
2023-02-07T03:06:41.743Z,103320.45
2023-02-07T03:09:25.422Z,103317.96
2023-02-07T03:12:19.020Z,103316.92
2023-02-07T03:14:58.490Z,103322.20
2023-02-07T03:17:34.652Z,103325.27
2023-02-07T03:20:16.450Z,103322.11
2023-02-07T03:22:48.349Z,103317.33
2023-02-07T03:25:21.061Z,103316.48
2023-02-07T03:27:53.411Z,103313.23
2023-02-07T03:30:28.730Z,103319.62
2023-02-07T03:33:05.822Z,103322.84
2023-02-07T03:35:41.080Z,103324.35
2023-02-07T03:38:12.011Z,103329.41
2023-02-07T03:40:46.763Z,103338.25
2023-02-07T03:43:22.556Z,103339.06
2023-02-07T03:45:53.265Z,103337.45
2023-02-07T03:48:24.629Z,103335.58
2023-02-07T03:50:55.728Z,103329.81
2023-02-07T03:53:24.819Z,103327.11
2023-02-07T03:55:55.438Z,103328.84
2023-02-07T03:58:26.086Z,103325.48
2023-02-07T04:00:56.729Z,103323.81
2023-02-07T04:03:27.584Z,103320.23
2023-02-07T04:05:56.843Z,103321.67
2023-02-07T04:08:27.536Z,103326.86
2023-02-07T04:11:02.464Z,103321.13
2023-02-07T04:13:33.242Z,103321.17
2023-02-07T04:16:04.599Z,103317.77
2023-02-07T04:18:35.639Z,103316.09
2023-02-07T04:21:08.610Z,103319.48
2023-02-07T04:23:39.272Z,103316.27
2023-02-07T04:26:09.902Z,103318.95
2023-02-07T04:28:40.572Z,103323.33
2023-02-07T04:31:11.255Z,103324.02
2023-02-07T04:33:42.008Z,103321.50
2023-02-07T04:36:12.833Z,103323.92
2023-02-07T04:38:43.940Z,103332.29
2023-02-07T04:41:12.964Z,103334.83
2023-02-07T04:43:43.668Z,103328.98
2023-02-07T04:46:14.319Z,103326.41
2023-02-07T04:48:45.028Z,103324.73
2023-02-07T04:51:15.255Z,103320.83
2023-02-07T04:53:46.542Z,103316.17
2023-02-07T04:56:17.205Z,103318.75
2023-02-07T04:58:47.913Z,103320.09
2023-02-07T05:01:18.568Z,103313.63
2023-02-07T05:03:49.313Z,103318.30
2023-02-07T05:06:19.902Z,103319.02
2023-02-07T05:08:50.903Z,103311.55
2023-02-07T05:11:22.354Z,103306.69
2023-02-07T05:13:53.073Z,103304.44
2023-02-07T05:16:23.769Z,103309.92
2023-02-07T05:19:17.348Z,103315.98
2023-02-07T05:21:45.805Z,103318.35
2023-02-07T05:24:16.534Z,103313.30
2023-02-07T05:26:47.129Z,103314.01
2023-02-07T05:29:17.962Z,103322.99
2023-02-07T05:31:48.754Z,103328.05
2023-02-07T05:34:18.124Z,103326.61
2023-02-07T05:36:48.671Z,103321.67
2023-02-07T05:39:19.368Z,103323.98
2023-02-07T05:41:49.974Z,103328.30
2023-02-07T05:44:20.700Z,103331.91
2023-02-07T05:46:52.708Z,103333.30
2023-02-07T05:49:23.543Z,103337.41
2023-02-07T05:51:54.153Z,103338.70
2023-02-07T05:54:24.970Z,103341.46
2023-02-07T05:56:55.649Z,103345.80
2023-02-07T05:59:26.278Z,103351.38
2023-02-07T06:01:56.859Z,103350.45
2023-02-07T06:04:27.887Z,103347.84
2023-02-07T06:06:58.521Z,103346.64
2023-02-07T06:09:29.312Z,103347.01
2023-02-07T06:12:00.133Z,103346.18
2023-02-07T06:14:30.889Z,103345.11
2023-02-07T06:17:02.029Z,103342.56
2023-02-07T06:19:32.719Z,103345.22
2023-02-07T06:22:11.200Z,103347.30
2023-02-07T06:24:50.350Z,103353.00
2023-02-07T06:27:21.257Z,103352.60
2023-02-07T06:29:52.112Z,103355.64
2023-02-07T06:32:27.770Z,103358.39
2023-02-07T06:35:01.386Z,103361.31
2023-02-07T06:37:32.029Z,103360.42
2023-02-07T06:40:02.821Z,103365.28
2023-02-07T06:42:33.505Z,103366.66
2023-02-07T06:45:06.301Z,103367.09
2023-02-07T06:47:36.973Z,103365.85
2023-02-07T06:50:15.113Z,103369.88
2023-02-07T06:52:45.922Z,103365.95
2023-02-07T06:55:17.031Z,103366.16
2023-02-07T06:58:50.633Z,103371.58
2023-02-07T07:01:00.960Z,103367.91
2023-02-07T07:03:31.789Z,103366.40
2023-02-07T07:06:02.626Z,103361.48
2023-02-07T07:08:33.269Z,103359.03
2023-02-07T07:11:04.177Z,103350.14
2023-02-07T07:13:34.991Z,103350.38
2023-02-07T07:16:07.680Z,103347.21
2023-02-07T07:18:38.734Z,103346.11
2023-02-07T07:21:08.272Z,103346.47
2023-02-07T07:23:38.960Z,103343.81
2023-02-07T07:26:09.701Z,103337.75
2023-02-07T07:28:40.297Z,103336.31
2023-02-07T07:31:13.967Z,103332.30
2023-02-07T07:33:44.705Z,103335.55
2023-02-07T07:36:15.488Z,103338.36
2023-02-07T07:38:47.796Z,103343.30
2023-02-07T07:41:18.937Z,103340.66
2023-02-07T07:43:51.944Z,103334.13
2023-02-07T07:46:22.992Z,103333.30
2023-02-07T07:48:52.086Z,103328.94
2023-02-07T07:51:22.747Z,103334.33
2023-02-07T07:53:53.476Z,103336.96
2023-02-07T07:56:24.254Z,103332.29
2023-02-07T07:58:56.266Z,103335.15
2023-02-07T08:01:28.708Z,103332.20
2023-02-07T08:04:10.231Z,103328.56
2023-02-07T08:06:41.102Z,103328.17
2023-02-07T08:09:11.738Z,103333.61
2023-02-07T08:11:43.656Z,103339.65
2023-02-07T08:14:18.092Z,103342.99
2023-02-07T08:17:21.960Z,103342.11
2023-02-07T08:19:44.963Z,103339.08
2023-02-07T08:22:15.657Z,103342.03
2023-02-07T08:24:46.486Z,103341.36
2023-02-07T08:27:17.135Z,103341.03
2023-02-07T08:29:57.720Z,103342.65
2023-02-07T08:32:28.586Z,103340.70
2023-02-07T08:34:59.548Z,103342.77
2023-02-07T08:37:31.382Z,103349.14
2023-02-07T08:40:02.309Z,103353.72
2023-02-07T08:42:33.475Z,103355.13
2023-02-07T08:45:09.387Z,103350.27
2023-02-07T08:47:40.495Z,103355.38
2023-02-07T08:50:18.976Z,103356.27
2023-02-07T08:52:50.710Z,103357.24
2023-02-07T08:55:24.208Z,103364.49
2023-02-07T08:57:55.054Z,103360.09
2023-02-07T09:00:25.930Z,103366.05
2023-02-07T09:02:56.646Z,103372.67
2023-02-07T09:05:27.338Z,103373.45
2023-02-07T09:08:02.385Z,103375.00
2023-02-07T09:10:37.015Z,103374.26
2023-02-07T09:13:07.722Z,103377.23
2023-02-07T09:15:38.501Z,103378.95
2023-02-07T09:18:10.956Z,103381.21
2023-02-07T09:20:43.846Z,103382.15
2023-02-07T09:23:14.533Z,103386.59
2023-02-07T09:25:45.973Z,103375.56
2023-02-07T09:28:17.030Z,103381.98
2023-02-07T09:30:54.249Z,103379.40
2023-02-07T09:33:25.524Z,103373.73
2023-02-07T09:36:02.088Z,103373.20
2023-02-07T09:38:33.064Z,103376.26
2023-02-07T09:41:03.741Z,103379.09
2023-02-07T09:43:47.672Z,103387.73
2023-02-07T09:46:23.790Z,103389.09
2023-02-07T09:49:02.412Z,103393.48
2023-02-07T09:51:35.865Z,103393.63
2023-02-07T09:54:15.233Z,103396.25
2023-02-07T09:56:47.189Z,103394.50
2023-02-07T09:59:24.655Z,103397.99
2023-02-07T10:02:01.394Z,103395.05
2023-02-07T10:04:48.615Z,103394.29
2023-02-07T10:07:50.309Z,103392.44
2023-02-07T10:10:18.232Z,103391.59
2023-02-07T10:13:08.492Z,103398.39
2023-02-07T10:15:53.706Z,103397.20
2023-02-07T10:18:44.617Z,103405.61
2023-02-07T10:21:25.244Z,103409.67
2023-02-07T10:24:27.784Z,103410.27
2023-02-07T10:27:06.066Z,103409.21
2023-02-07T10:29:50.609Z,103413.86
2023-02-07T10:32:33.926Z,103411.88
2023-02-07T10:35:14.978Z,103414.70
2023-02-07T10:38:12.258Z,103412.59
2023-02-07T10:40:50.251Z,103409.90
2023-02-07T10:43:28.864Z,103405.88
2023-02-07T10:46:06.127Z,103399.13
2023-02-07T10:48:38.663Z,103399.71
2023-02-07T10:51:25.064Z,103401.29
2023-02-07T10:54:07.718Z,103400.39
2023-02-07T10:56:43.303Z,103401.46
2023-02-07T10:59:35.732Z,103401.17
2023-02-07T11:02:45.755Z,103399.23
2023-02-07T11:05:50.754Z,103396.00
2023-02-07T11:08:42.389Z,103388.98
2023-02-07T11:11:31.404Z,103384.84
2023-02-07T11:14:06.784Z,103376.75
2023-02-07T11:16:43.178Z,103370.03
2023-02-07T11:19:19.056Z,103364.30
2023-02-07T11:21:51.900Z,103364.95
2023-02-07T11:24:28.317Z,103356.22
2023-02-07T11:27:07.050Z,103354.58
2023-02-07T11:29:44.690Z,103344.48
2023-02-07T11:32:17.020Z,103341.09
2023-02-07T11:34:51.196Z,103341.29
2023-02-07T11:37:28.138Z,103338.30
2023-02-07T11:40:20.717Z,103330.85
2023-02-07T11:42:57.699Z,103325.70
2023-02-07T11:45:29.895Z,103318.17
2023-02-07T11:48:01.806Z,103310.34
2023-02-07T11:50:39.330Z,103307.17
2023-02-07T11:53:45.310Z,103304.41
2023-02-07T11:56:24.121Z,103298.85
2023-02-07T11:58:55.654Z,103297.16
2023-02-07T12:02:30.745Z,103300.30
2023-02-07T12:05:25.264Z,103295.38
2023-02-07T12:08:02.372Z,103296.14
2023-02-07T12:10:36.739Z,103290.48
2023-02-07T12:13:11.791Z,103283.34
2023-02-07T12:15:47.822Z,103273.65
2023-02-07T12:18:26.360Z,103268.75
2023-02-07T12:21:02.374Z,103268.52
2023-02-07T12:23:46.352Z,103272.12
2023-02-07T12:26:22.874Z,103276.67
2023-02-07T12:29:13.059Z,103270.66
2023-02-07T12:31:51.169Z,103269.73
2023-02-07T12:34:27.650Z,103274.08
2023-02-07T12:37:05.511Z,103270.20
2023-02-07T12:39:43.338Z,103263.98
2023-02-07T12:42:29.752Z,103259.62
2023-02-07T12:45:02.517Z,103260.70
2023-02-07T12:47:48.757Z,103263.95
2023-02-07T12:50:39.112Z,103264.80
2023-02-07T12:53:21.904Z,103267.89
2023-02-07T12:56:03.126Z,103264.52
2023-02-07T12:58:41.702Z,103259.06
2023-02-07T13:01:19.750Z,103260.29
2023-02-07T13:04:25.092Z,103257.16
2023-02-07T13:07:08.276Z,103258.10
2023-02-07T13:09:46.247Z,103255.02
2023-02-07T13:12:26.645Z,103258.13
2023-02-07T13:15:09.829Z,103260.76
2023-02-07T13:17:50.544Z,103265.16
2023-02-07T13:20:33.041Z,103264.53
2023-02-07T13:23:10.525Z,103267.08
2023-02-07T13:25:44.521Z,103270.04
2023-02-07T13:28:22.854Z,103275.35
2023-02-07T13:30:54.874Z,103276.84
2023-02-07T13:33:38.431Z,103273.62
2023-02-07T13:36:17.850Z,103264.77
2023-02-07T13:39:18.026Z,103261.58
2023-02-07T13:42:07.938Z,103253.27
2023-02-07T13:44:45.800Z,103254.98
2023-02-07T13:47:44.328Z,103259.13
2023-02-07T13:50:33.698Z,103257.65
2023-02-07T13:53:12.207Z,103248.13
2023-02-07T13:55:44.413Z,103241.53
2023-02-07T13:58:45.612Z,103248.98
2023-02-07T14:01:20.372Z,103259.43
2023-02-07T14:04:14.853Z,103263.34
2023-02-07T14:06:56.286Z,103259.67
2023-02-07T14:09:33.686Z,103258.66
2023-02-07T14:12:07.287Z,103257.45
2023-02-07T14:14:39.243Z,103264.00
2023-02-07T14:17:13.855Z,103262.56
2023-02-07T14:19:52.798Z,103261.98
2023-02-07T14:22:26.619Z,103262.44
2023-02-07T14:25:40.756Z,103264.52
2023-02-07T14:28:32.463Z,103258.52
2023-02-07T14:31:23.305Z,103257.71
2023-02-07T14:34:14.777Z,103256.35
2023-02-07T14:36:45.529Z,103251.81
2023-02-07T14:39:33.355Z,103253.92
2023-02-07T14:42:16.342Z,103251.30
2023-02-07T14:44:48.434Z,103249.69
2023-02-07T14:47:25.293Z,103246.35
2023-02-07T14:49:58.498Z,103249.89
2023-02-07T14:53:03.664Z,103246.52
2023-02-07T14:55:45.730Z,103244.19
2023-02-07T14:58:26.395Z,103249.39
2023-02-07T15:01:00.629Z,103257.14
2023-02-07T15:03:34.816Z,103253.91
2023-02-07T15:06:23.814Z,103251.75
2023-02-07T15:09:02.636Z,103257.68
2023-02-07T15:11:32.311Z,103260.68
2023-02-07T15:14:05.356Z,103261.75
2023-02-07T15:16:36.927Z,103260.04
2023-02-07T15:19:14.992Z,103262.26
2023-02-07T15:21:47.962Z,103264.76
2023-02-07T15:24:23.645Z,103267.27
2023-02-07T15:26:58.511Z,103265.83
2023-02-07T15:29:31.396Z,103264.30
2023-02-07T15:32:11.731Z,103267.06
2023-02-07T15:34:44.766Z,103278.54
2023-02-07T15:37:19.529Z,103280.48
2023-02-07T15:39:52.003Z,103286.95
2023-02-07T15:42:23.429Z,103293.64
2023-02-07T15:44:58.123Z,103295.20
2023-02-07T15:47:36.783Z,103299.08
2023-02-07T15:50:23.146Z,103298.05
2023-02-07T15:52:56.499Z,103295.59
2023-02-07T15:55:32.729Z,103296.77
2023-02-07T15:58:04.654Z,103296.35
2023-02-07T16:00:40.039Z,103293.05
2023-02-07T16:03:18.556Z,103298.77
2023-02-07T16:05:49.719Z,103303.65
2023-02-07T16:08:30.616Z,103304.52
2023-02-07T16:11:19.937Z,103309.60
2023-02-07T16:13:54.088Z,103310.52
2023-02-07T16:16:27.495Z,103313.31
2023-02-07T16:19:08.350Z,103314.50
2023-02-07T16:21:38.952Z,103318.66
2023-02-07T16:24:14.917Z,103319.11
2023-02-07T16:26:46.712Z,103323.90
2023-02-07T16:29:22.653Z,103327.88
2023-02-07T16:31:54.233Z,103333.27
2023-02-07T16:34:25.451Z,103334.71
2023-02-07T16:36:55.161Z,103338.77
2023-02-07T16:39:25.876Z,103341.54
2023-02-07T16:42:02.728Z,103343.08
2023-02-07T16:44:35.602Z,103346.65
2023-02-07T16:47:06.546Z,103345.20
2023-02-07T16:49:39.768Z,103346.60
2023-02-07T16:52:10.576Z,103343.71
2023-02-07T16:54:41.564Z,103339.30
2023-02-07T16:57:44.936Z,103344.65
2023-02-07T17:00:16.777Z,103343.73
2023-02-07T17:02:47.867Z,103345.69
2023-02-07T17:05:20.046Z,103347.70
2023-02-07T17:07:51.207Z,103349.14
2023-02-07T17:10:32.775Z,103349.70
2023-02-07T17:13:03.525Z,103353.55
2023-02-07T17:15:34.782Z,103354.77
2023-02-07T17:18:06.093Z,103355.02
2023-02-07T17:20:36.905Z,103357.02
2023-02-07T17:23:09.437Z,103355.77
2023-02-07T17:25:46.779Z,103359.20
2023-02-07T17:28:17.767Z,103362.58
2023-02-07T17:30:48.473Z,103361.55
2023-02-07T17:33:19.314Z,103360.91
2023-02-07T17:35:50.126Z,103358.02
2023-02-07T17:38:20.758Z,103353.55
2023-02-07T17:40:51.398Z,103355.42
2023-02-07T17:43:23.287Z,103356.42
2023-02-07T17:45:56.882Z,103360.91
2023-02-07T17:48:27.716Z,103359.54
2023-02-07T17:50:58.669Z,103358.33
2023-02-07T17:53:29.818Z,103354.31
2023-02-07T17:56:00.581Z,103352.48
2023-02-07T17:58:31.552Z,103355.03
2023-02-07T18:01:02.690Z,103353.28
2023-02-07T18:03:33.615Z,103350.36
2023-02-07T18:06:11.264Z,103349.40
2023-02-07T18:08:42.578Z,103350.18
2023-02-07T18:11:13.955Z,103348.51
2023-02-07T18:13:47.190Z,103353.72
2023-02-07T18:16:20.048Z,103354.58
2023-02-07T18:18:52.154Z,103356.08
2023-02-07T18:21:26.256Z,103356.35
2023-02-07T18:23:57.115Z,103348.73
2023-02-07T18:26:28.082Z,103348.23
2023-02-07T18:28:57.454Z,103352.42
2023-02-07T18:31:28.673Z,103349.11
2023-02-07T18:33:59.522Z,103348.35
2023-02-07T18:36:30.388Z,103340.63
2023-02-07T18:39:01.302Z,103347.73
2023-02-07T18:41:32.107Z,103342.54
2023-02-07T18:44:02.691Z,103350.66
2023-02-07T18:46:33.411Z,103354.15
2023-02-07T18:49:04.398Z,103355.02
2023-02-07T18:51:55.228Z,103358.41
2023-02-07T18:54:31.848Z,103362.83
2023-02-07T18:57:02.640Z,103361.52
2023-02-07T18:59:37.092Z,103358.41
2023-02-07T19:02:08.247Z,103353.04
2023-02-07T19:04:37.299Z,103354.87
2023-02-07T19:07:07.923Z,103361.05
2023-02-07T19:09:38.593Z,103367.61
2023-02-07T19:12:33.240Z,103365.52
2023-02-07T19:15:24.800Z,103364.65
2023-02-07T19:17:51.133Z,103366.52
2023-02-07T19:20:21.760Z,103368.14
2023-02-07T19:22:52.389Z,103364.94
2023-02-07T19:25:23.009Z,103368.10
2023-02-07T19:27:53.949Z,103373.90
2023-02-07T19:30:25.014Z,103379.76
2023-02-07T19:32:55.647Z,103386.89
2023-02-07T19:35:26.227Z,103388.22
2023-02-07T19:38:01.102Z,103396.27
2023-02-07T19:40:31.873Z,103395.81
2023-02-07T19:43:23.250Z,103398.33
2023-02-07T19:45:54.548Z,103399.15
2023-02-07T19:48:23.766Z,103399.54
2023-02-07T19:51:01.316Z,103397.77
2023-02-07T19:53:32.944Z,103393.05
2023-02-07T19:56:05.701Z,103395.36
2023-02-07T19:58:40.006Z,103393.36
2023-02-07T20:01:11.963Z,103389.07
2023-02-07T20:03:43.764Z,103391.46
2023-02-07T20:06:15.420Z,103389.26
2023-02-07T20:08:46.082Z,103390.23
2023-02-07T20:11:18.933Z,103385.61
2023-02-07T20:13:52.838Z,103388.77
2023-02-07T20:16:25.741Z,103386.10
2023-02-07T20:18:56.986Z,103383.55
2023-02-07T20:21:27.488Z,103386.91
2023-02-07T20:23:59.833Z,103384.07
2023-02-07T20:26:32.984Z,103380.46
2023-02-07T20:29:07.362Z,103380.54
2023-02-07T20:31:40.667Z,103383.95
2023-02-07T20:34:11.820Z,103386.76
2023-02-07T20:36:41.528Z,103385.23
2023-02-07T20:39:14.993Z,103385.30
2023-02-07T20:41:46.247Z,103386.87
2023-02-07T20:44:22.072Z,103393.80
2023-02-07T20:46:53.400Z,103396.33
2023-02-07T20:49:28.678Z,103393.10
2023-02-07T20:52:00.390Z,103392.36
2023-02-07T20:54:32.102Z,103399.13
2023-02-07T20:57:02.884Z,103401.77
2023-02-07T20:59:52.505Z,103406.50
2023-02-07T21:02:23.191Z,103407.20
2023-02-07T21:04:53.910Z,103400.43
2023-02-07T21:07:24.871Z,103406.21
2023-02-07T21:09:57.670Z,103401.45
2023-02-07T21:12:30.676Z,103407.66
2023-02-07T21:15:02.604Z,103408.66
2023-02-07T21:17:33.274Z,103409.52
2023-02-07T21:23:02.978Z,103406.02
2023-02-07T21:25:33.740Z,103410.60
2023-02-07T21:28:04.480Z,103408.33
2023-02-07T21:30:36.059Z,103413.60
2023-02-07T21:33:07.621Z,103415.46
2023-02-07T21:35:48.235Z,103409.87
2023-02-07T21:38:18.974Z,103404.92
2023-02-07T21:40:49.778Z,103406.15
2023-02-07T21:43:20.448Z,103408.46
2023-02-07T21:45:51.178Z,103412.42
2023-02-07T21:48:21.876Z,103406.69
2023-02-07T21:50:52.782Z,103411.14
2023-02-07T21:53:23.376Z,103414.43
2023-02-07T21:55:54.062Z,103417.23
2023-02-07T21:58:26.688Z,103416.98
2023-02-07T22:01:03.953Z,103415.92
2023-02-07T22:03:34.663Z,103419.41
2023-02-07T22:06:06.369Z,103417.77
2023-02-07T22:08:38.467Z,103416.16
2023-02-07T22:11:11.063Z,103415.98
2023-02-07T22:13:45.881Z,103416.58
2023-02-07T22:16:17.525Z,103418.11
2023-02-07T22:18:48.458Z,103419.95
2023-02-07T22:21:23.209Z,103417.45
2023-02-07T22:23:55.247Z,103416.45
2023-02-07T22:26:27.208Z,103420.83
2023-02-07T22:28:58.500Z,103425.41
2023-02-07T22:31:31.333Z,103425.01
2023-02-07T22:34:04.227Z,103424.46
2023-02-07T22:36:37.598Z,103426.87
2023-02-07T22:39:09.304Z,103428.56
2023-02-07T22:41:42.018Z,103430.84
2023-02-07T22:44:12.858Z,103436.16
2023-02-07T22:46:43.577Z,103437.09
2023-02-07T22:49:14.310Z,103437.75
2023-02-07T22:51:45.009Z,103434.99
2023-02-07T22:54:17.604Z,103435.23
2023-02-07T22:56:48.580Z,103439.07
2023-02-07T22:59:19.230Z,103435.61
2023-02-07T23:01:50.613Z,103439.29
2023-02-07T23:04:21.362Z,103444.05
2023-02-07T23:06:52.965Z,103440.42
2023-02-07T23:09:23.703Z,103440.96
2023-02-07T23:11:54.447Z,103438.84
2023-02-07T23:14:25.374Z,103442.06
2023-02-07T23:16:54.637Z,103436.48
2023-02-07T23:19:25.626Z,103434.21
2023-02-07T23:22:01.022Z,103432.75
2023-02-07T23:24:31.678Z,103430.55
2023-02-07T23:27:02.683Z,103432.48
2023-02-07T23:29:33.900Z,103433.63
2023-02-07T23:32:03.000Z,103435.94
2023-02-07T23:34:34.139Z,103439.15
2023-02-07T23:37:03.249Z,103438.35
2023-02-07T23:39:33.860Z,103436.50
2023-02-07T23:42:04.638Z,103439.67
2023-02-07T23:44:35.340Z,103442.18
2023-02-07T23:47:05.156Z,103443.02
2023-02-07T23:49:36.569Z,103440.80
2023-02-07T23:52:07.334Z,103438.87
2023-02-07T23:54:38.151Z,103439.61
2023-02-07T23:57:09.159Z,103445.73
2023-02-07T23:59:42.734Z,103447.20
